Azalea Park, Florida
Current Conditions -  °F | °C
As of 3:53 PM on Friday 28 Nov 2014 (Local Time) from KORL Reporting Station
Clear Clear  
Wind Chill: 16°   Ceiling: Unl
Heat Index: 16°   Visibility: 10mi
Dew Point:   Wind: 12mph
Humidity: 46%   Direction: 10°N
Pressure: 30.26"   Gusts: NA
Location:  28.5525°N, 81.3003°W
Report Text: KORL 282053Z 01010KT 10SM CLR 16/04 A3026 RMK AO2 SLP251 T01610044 55007
Loading
Personal Weather Stations






























Interactive Weather Map New forecast layout! Learn more

10-Day Weather Forecast

Advertisements
Track Severe Weather on mobile